This is the latest recevied weather packets stored in our database for station/object E22ZMG-3. If no packets are shown the sender has not sent any weather packets the latest 10 day(s).
| Time | Temp. | Humidity | Pressure | Rain* | Wind** | Luminosity | Snow |
|---|---|---|---|---|---|---|---|
| 1777893798 | 35.56° C | 35% | 972 hPa | - | - | 0 W/m² | - |
| 1777893174 | 35.56° C | 36% | 972 hPa | - | - | 0 W/m² | - |
| 1777892549 | 36.11° C | 36% | 972 hPa | - | - | 0 W/m² | - |
| 1777891924 | 36.67° C | 36% | 973 hPa | - | - | 0 W/m² | - |
| 1777891300 | 38.89° C | 31% | 972 hPa | - | - | 0 W/m² | - |
| 1777890675 | 42.22° C | 23% | 972 hPa | - | - | 0 W/m² | - |
| 1777890050 | 42.78° C | 23% | 971 hPa | - | - | 0 W/m² | - |
| 1777889426 | 42.22° C | 23% | 971 hPa | - | - | 0 W/m² | - |
| 1777888802 | 42.22° C | 23% | 971 hPa | - | - | 0 W/m² | - |
| 1777888176 | 42.22° C | 23% | 971 hPa | - | - | 0 W/m² | - |
| 1777887552 | 42.78° C | 23% | 971 hPa | - | - | 0 W/m² | - |
| 1777886926 | 42.78° C | 22% | 972 hPa | - | - | 0 W/m² | - |
| 1777886302 | 43.33° C | 22% | 972 hPa | - | - | 0 W/m² | - |
| 1777885677 | 42.78° C | 22% | 972 hPa | - | - | 0 W/m² | - |
| 1777885053 | 42.22° C | 23% | 972 hPa | - | - | 0 W/m² | - |
| 1777884428 | 43.33° C | 23% | 972 hPa | - | - | 0 W/m² | - |
| 1777883803 | 42.78° C | 23% | 972 hPa | - | - | 0 W/m² | - |
| 1777883177 | 42.22° C | 23% | 972 hPa | - | - | 0 W/m² | - |
| 1777882552 | 42.78° C | 24% | 973 hPa | - | - | 0 W/m² | - |
| 1777881928 | 42.78° C | 24% | 973 hPa | - | - | 0 W/m² | - |
| 1777881303 | 41.67° C | 23% | 973 hPa | - | - | 0 W/m² | - |
| 1777880679 | 41.11° C | 22% | 973 hPa | - | - | 0 W/m² | - |
| 1777880054 | 42.22° C | 24% | 973 hPa | - | - | 0 W/m² | - |
| 1777879429 | 43.89° C | 20% | 973 hPa | - | - | 0 W/m² | - |
| 1777878805 | 43.33° C | 23% | 974 hPa | - | - | 0 W/m² | - |
* Rain since midnight (hover to see other rain measurements)
** Current wind speed in m/s (hover to see current wind gust speed)